sensor_id;sensor_type;location;lat;lon;timestamp;temperature;humidity
20384;DHT22;46458;50.966;7.002;2024-01-06T00:01:22;7.80;1.00
20384;DHT22;46458;50.966;7.002;2024-01-06T00:03:50;7.80;1.00
20384;DHT22;46458;50.966;7.002;2024-01-06T00:06:19;7.90;99.90
20384;DHT22;46458;50.966;7.002;2024-01-06T00:08:48;7.80;99.90
20384;DHT22;46458;50.966;7.002;2024-01-06T00:11:22;7.80;1.00
20384;DHT22;46458;50.966;7.002;2024-01-06T00:13:50;7.80;1.00
20384;DHT22;46458;50.966;7.002;2024-01-06T00:16:22;7.70;28.70
20384;DHT22;46458;50.966;7.002;2024-01-06T00:18:51;7.60;1.00
20384;DHT22;46458;50.966;7.002;2024-01-06T00:21:19;7.60;1.00
20384;DHT22;46458;50.966;7.002;2024-01-06T00:23:48;7.60;1.40
20384;DHT22;46458;50.966;7.002;2024-01-06T00:26:17;7.70;1.00
20384;DHT22;46458;50.966;7.002;2024-01-06T00:28:46;7.60;99.90
20384;DHT22;46458;50.966;7.002;2024-01-06T00:31:16;7.70;1.00
20384;DHT22;46458;50.966;7.002;2024-01-06T00:33:47;7.50;1.00
20384;DHT22;46458;50.966;7.002;2024-01-06T00:36:16;7.60;1.00
20384;DHT22;46458;50.966;7.002;2024-01-06T00:38:45;7.70;1.00
20384;DHT22;46458;50.966;7.002;2024-01-06T00:41:14;7.70;1.00
20384;DHT22;46458;50.966;7.002;2024-01-06T00:43:43;7.60;1.00
20384;DHT22;46458;50.966;7.002;2024-01-06T00:46:12;7.60;1.00
20384;DHT22;46458;50.966;7.002;2024-01-06T00:48:41;7.70;99.90
20384;DHT22;46458;50.966;7.002;2024-01-06T00:51:13;7.70;99.90
20384;DHT22;46458;50.966;7.002;2024-01-06T00:53:42;7.70;1.00
20384;DHT22;46458;50.966;7.002;2024-01-06T00:56:10;7.60;1.00
20384;DHT22;46458;50.966;7.002;2024-01-06T00:58:39;7.60;1.00
20384;DHT22;46458;50.966;7.002;2024-01-06T01:01:08;7.50;99.90
20384;DHT22;46458;50.966;7.002;2024-01-06T01:03:37;7.40;1.00
20384;DHT22;46458;50.966;7.002;2024-01-06T01:06:05;7.40;99.90
20384;DHT22;46458;50.966;7.002;2024-01-06T01:08:37;7.50;99.90
20384;DHT22;46458;50.966;7.002;2024-01-06T01:11:06;7.50;99.90
20384;DHT22;46458;50.966;7.002;2024-01-06T01:13:35;7.40;1.00
20384;DHT22;46458;50.966;7.002;2024-01-06T01:16:04;7.40;1.00
20384;DHT22;46458;50.966;7.002;2024-01-06T01:18:33;7.40;99.90
20384;DHT22;46458;50.966;7.002;2024-01-06T01:21:02;7.30;99.90
20384;DHT22;46458;50.966;7.002;2024-01-06T01:23:31;7.40;99.90
20384;DHT22;46458;50.966;7.002;2024-01-06T01:26:02;7.40;99.90
20384;DHT22;46458;50.966;7.002;2024-01-06T01:28:31;7.50;1.00
20384;DHT22;46458;50.966;7.002;2024-01-06T01:31:00;7.40;99.90
20384;DHT22;46458;50.966;7.002;2024-01-06T01:33:29;7.30;99.90
20384;DHT22;46458;50.966;7.002;2024-01-06T01:35:57;7.40;1.00
20384;DHT22;46458;50.966;7.002;2024-01-06T01:38:26;7.40;1.00
20384;DHT22;46458;50.966;7.002;2024-01-06T01:40:55;7.60;1.00
20384;DHT22;46458;50.966;7.002;2024-01-06T01:43:28;7.40;1.00
20384;DHT22;46458;50.966;7.002;2024-01-06T01:45:57;7.40;1.00
20384;DHT22;46458;50.966;7.002;2024-01-06T01:48:27;7.30;40.70
20384;DHT22;46458;50.966;7.002;2024-01-06T01:50:56;7.30;99.90
20384;DHT22;46458;50.966;7.002;2024-01-06T01:53:26;7.40;99.90
20384;DHT22;46458;50.966;7.002;2024-01-06T01:55:57;7.40;99.90
20384;DHT22;46458;50.966;7.002;2024-01-06T01:58:28;7.30;1.00
20384;DHT22;46458;50.966;7.002;2024-01-06T02:00:57;7.40;99.90
20384;DHT22;46458;50.966;7.002;2024-01-06T02:03:26;7.30;1.00
20384;DHT22;46458;50.966;7.002;2024-01-06T02:05:56;7.20;76.90
20384;DHT22;46458;50.966;7.002;2024-01-06T02:08:25;7.20;1.00
20384;DHT22;46458;50.966;7.002;2024-01-06T02:10:54;7.20;1.00
20384;DHT22;46458;50.966;7.002;2024-01-06T02:13:23;7.20;1.00
20384;DHT22;46458;50.966;7.002;2024-01-06T02:15:55;7.20;1.00
20384;DHT22;46458;50.966;7.002;2024-01-06T02:18:24;7.20;1.00
20384;DHT22;46458;50.966;7.002;2024-01-06T02:20:53;7.10;1.00
20384;DHT22;46458;50.966;7.002;2024-01-06T02:23:28;7.20;1.00
20384;DHT22;46458;50.966;7.002;2024-01-06T02:25:57;7.20;30.30
20384;DHT22;46458;50.966;7.002;2024-01-06T02:28:26;7.20;95.10
20384;DHT22;46458;50.966;7.002;2024-01-06T02:30:55;7.10;19.70
20384;DHT22;46458;50.966;7.002;2024-01-06T02:33:24;7.10;52.00
20384;DHT22;46458;50.966;7.002;2024-01-06T02:35:52;7.20;99.90
20384;DHT22;46458;50.966;7.002;2024-01-06T02:38:21;6.70;99.90
20384;DHT22;46458;50.966;7.002;2024-01-06T02:40:53;7.20;99.90
20384;DHT22;46458;50.966;7.002;2024-01-06T02:43:21;7.30;97.90
20384;DHT22;46458;50.966;7.002;2024-01-06T02:45:50;7.30;2.70
20384;DHT22;46458;50.966;7.002;2024-01-06T02:48:19;7.30;2.30
20384;DHT22;46458;50.966;7.002;2024-01-06T02:50:48;7.30;1.00
20384;DHT22;46458;50.966;7.002;2024-01-06T02:53:17;7.30;20.30
20384;DHT22;46458;50.966;7.002;2024-01-06T02:55:45;7.40;72.10
20384;DHT22;46458;50.966;7.002;2024-01-06T02:58:17;7.40;34.30
20384;DHT22;46458;50.966;7.002;2024-01-06T03:00:46;7.30;1.00
20384;DHT22;46458;50.966;7.002;2024-01-06T03:03:14;7.20;41.20
20384;DHT22;46458;50.966;7.002;2024-01-06T03:05:44;7.30;99.90
20384;DHT22;46458;50.966;7.002;2024-01-06T03:08:14;7.30;58.50
20384;DHT22;46458;50.966;7.002;2024-01-06T03:10:44;7.30;97.20
20384;DHT22;46458;50.966;7.002;2024-01-06T03:13:12;7.30;45.90
20384;DHT22;46458;50.966;7.002;2024-01-06T03:15:44;7.40;84.70
20384;DHT22;46458;50.966;7.002;2024-01-06T03:18:13;7.30;1.00
20384;DHT22;46458;50.966;7.002;2024-01-06T03:20:41;7.40;59.10
20384;DHT22;46458;50.966;7.002;2024-01-06T03:23:10;7.40;76.00
20384;DHT22;46458;50.966;7.002;2024-01-06T03:25:39;7.40;1.00
20384;DHT22;46458;50.966;7.002;2024-01-06T03:28:08;7.50;1.00
20384;DHT22;46458;50.966;7.002;2024-01-06T03:30:37;7.60;1.00
20384;DHT22;46458;50.966;7.002;2024-01-06T03:33:08;7.50;99.90
20384;DHT22;46458;50.966;7.002;2024-01-06T03:35:38;7.40;62.40
20384;DHT22;46458;50.966;7.002;2024-01-06T03:38:06;7.40;99.90
20384;DHT22;46458;50.966;7.002;2024-01-06T03:40:35;7.40;99.90
20384;DHT22;46458;50.966;7.002;2024-01-06T03:43:04;7.40;1.00
20384;DHT22;46458;50.966;7.002;2024-01-06T03:45:33;7.40;1.00
20384;DHT22;46458;50.966;7.002;2024-01-06T03:48:02;7.30;1.00
20384;DHT22;46458;50.966;7.002;2024-01-06T03:50:34;7.40;1.00
20384;DHT22;46458;50.966;7.002;2024-01-06T03:53:03;7.30;1.00
20384;DHT22;46458;50.966;7.002;2024-01-06T03:55:32;7.30;1.00
20384;DHT22;46458;50.966;7.002;2024-01-06T03:58:01;7.30;1.00
20384;DHT22;46458;50.966;7.002;2024-01-06T04:00:30;7.40;1.00
20384;DHT22;46458;50.966;7.002;2024-01-06T04:02:58;7.40;1.00
20384;DHT22;46458;50.966;7.002;2024-01-06T04:05:28;7.40;1.00
20384;DHT22;46458;50.966;7.002;2024-01-06T04:07:59;7.40;1.00
20384;DHT22;46458;50.966;7.002;2024-01-06T04:10:28;7.30;1.00
20384;DHT22;46458;50.966;7.002;2024-01-06T04:12:57;7.40;1.00
20384;DHT22;46458;50.966;7.002;2024-01-06T04:15:26;7.30;1.00
20384;DHT22;46458;50.966;7.002;2024-01-06T04:17:54;7.30;1.00
20384;DHT22;46458;50.966;7.002;2024-01-06T04:20:23;7.20;1.50
20384;DHT22;46458;50.966;7.002;2024-01-06T04:22:52;7.30;99.90
20384;DHT22;46458;50.966;7.002;2024-01-06T04:25:23;7.30;99.90
20384;DHT22;46458;50.966;7.002;2024-01-06T04:27:52;7.30;99.90
20384;DHT22;46458;50.966;7.002;2024-01-06T04:30:21;7.30;99.90
20384;DHT22;46458;50.966;7.002;2024-01-06T04:32:50;7.30;99.90
20384;DHT22;46458;50.966;7.002;2024-01-06T04:35:20;7.30;99.90
20384;DHT22;46458;50.966;7.002;2024-01-06T04:37:49;7.40;99.90
20384;DHT22;46458;50.966;7.002;2024-01-06T04:40:18;7.40;99.90
20384;DHT22;46458;50.966;7.002;2024-01-06T04:42:49;7.50;99.90
20384;DHT22;46458;50.966;7.002;2024-01-06T04:45:18;7.50;43.50
20384;DHT22;46458;50.966;7.002;2024-01-06T04:47:49;7.40;1.00
20384;DHT22;46458;50.966;7.002;2024-01-06T04:50:18;7.40;1.00
20384;DHT22;46458;50.966;7.002;2024-01-06T04:52:47;7.40;1.00
20384;DHT22;46458;50.966;7.002;2024-01-06T04:55:16;7.30;1.00
20384;DHT22;46458;50.966;7.002;2024-01-06T04:57:45;7.40;99.90
20384;DHT22;46458;50.966;7.002;2024-01-06T05:00:16;7.40;99.90
20384;DHT22;46458;50.966;7.002;2024-01-06T05:02:45;7.40;99.90
20384;DHT22;46458;50.966;7.002;2024-01-06T05:05:14;7.50;99.90
20384;DHT22;46458;50.966;7.002;2024-01-06T05:07:43;7.50;99.90
20384;DHT22;46458;50.966;7.002;2024-01-06T05:10:12;7.50;99.90
20384;DHT22;46458;50.966;7.002;2024-01-06T05:12:40;7.50;1.00
20384;DHT22;46458;50.966;7.002;2024-01-06T05:15:09;7.50;1.00
20384;DHT22;46458;50.966;7.002;2024-01-06T05:17:41;7.50;1.00
20384;DHT22;46458;50.966;7.002;2024-01-06T05:20:10;7.50;1.00
20384;DHT22;46458;50.966;7.002;2024-01-06T05:22:39;7.60;99.90
20384;DHT22;46458;50.966;7.002;2024-01-06T05:25:08;7.60;99.90
20384;DHT22;46458;50.966;7.002;2024-01-06T05:27:37;7.60;99.90
20384;DHT22;46458;50.966;7.002;2024-01-06T05:30:07;7.50;1.00
20384;DHT22;46458;50.966;7.002;2024-01-06T05:32:39;7.60;1.00
20384;DHT22;46458;50.966;7.002;2024-01-06T05:35:08;7.50;29.30
20384;DHT22;46458;50.966;7.002;2024-01-06T05:37:37;7.40;99.90
20384;DHT22;46458;50.966;7.002;2024-01-06T05:40:07;7.30;99.90
20384;DHT22;46458;50.966;7.002;2024-01-06T05:42:37;7.30;99.90
20384;DHT22;46458;50.966;7.002;2024-01-06T05:45:06;7.10;99.90
20384;DHT22;46458;50.966;7.002;2024-01-06T05:47:35;7.10;99.90
20384;DHT22;46458;50.966;7.002;2024-01-06T05:50:07;7.10;1.00
20384;DHT22;46458;50.966;7.002;2024-01-06T05:52:37;7.10;1.00
20384;DHT22;46458;50.966;7.002;2024-01-06T05:55:07;7.00;1.00
20384;DHT22;46458;50.966;7.002;2024-01-06T05:57:37;7.00;1.00
20384;DHT22;46458;50.966;7.002;2024-01-06T06:00:09;7.00;99.90
20384;DHT22;46458;50.966;7.002;2024-01-06T06:02:39;7.00;1.00
20384;DHT22;46458;50.966;7.002;2024-01-06T06:05:11;6.60;1.00
20384;DHT22;46458;50.966;7.002;2024-01-06T06:07:39;6.80;1.00
20384;DHT22;46458;50.966;7.002;2024-01-06T06:10:10;6.80;1.00
20384;DHT22;46458;50.966;7.002;2024-01-06T06:12:41;6.80;99.90
20384;DHT22;46458;50.966;7.002;2024-01-06T06:15:10;6.70;1.00
20384;DHT22;46458;50.966;7.002;2024-01-06T06:17:39;6.60;1.00
20384;DHT22;46458;50.966;7.002;2024-01-06T06:20:11;6.60;99.90
20384;DHT22;46458;50.966;7.002;2024-01-06T06:22:40;6.60;1.00
20384;DHT22;46458;50.966;7.002;2024-01-06T06:25:09;6.50;1.00
20384;DHT22;46458;50.966;7.002;2024-01-06T06:27:38;6.40;1.00
20384;DHT22;46458;50.966;7.002;2024-01-06T06:30:08;6.40;1.00
20384;DHT22;46458;50.966;7.002;2024-01-06T06:32:37;6.40;1.00
20384;DHT22;46458;50.966;7.002;2024-01-06T06:35:07;6.40;99.90
20384;DHT22;46458;50.966;7.002;2024-01-06T06:37:38;6.50;1.00
20384;DHT22;46458;50.966;7.002;2024-01-06T06:40:08;6.40;1.00
20384;DHT22;46458;50.966;7.002;2024-01-06T06:42:37;6.50;1.00
20384;DHT22;46458;50.966;7.002;2024-01-06T06:45:07;6.50;99.90
20384;DHT22;46458;50.966;7.002;2024-01-06T06:47:37;6.50;99.90
20384;DHT22;46458;50.966;7.002;2024-01-06T06:50:06;6.40;1.00
20384;DHT22;46458;50.966;7.002;2024-01-06T06:52:38;6.40;1.00
20384;DHT22;46458;50.966;7.002;2024-01-06T06:55:08;6.40;1.00
20384;DHT22;46458;50.966;7.002;2024-01-06T06:57:37;6.40;1.00
20384;DHT22;46458;50.966;7.002;2024-01-06T07:00:06;6.40;92.30
20384;DHT22;46458;50.966;7.002;2024-01-06T07:02:35;6.40;99.90
20384;DHT22;46458;50.966;7.002;2024-01-06T07:05:05;6.30;1.00
20384;DHT22;46458;50.966;7.002;2024-01-06T07:07:34;6.50;99.90
20384;DHT22;46458;50.966;7.002;2024-01-06T07:10:07;6.40;1.00
20384;DHT22;46458;50.966;7.002;2024-01-06T07:12:36;6.50;99.90
20384;DHT22;46458;50.966;7.002;2024-01-06T07:15:06;6.50;11.00
20384;DHT22;46458;50.966;7.002;2024-01-06T07:17:35;6.40;1.00
20384;DHT22;46458;50.966;7.002;2024-01-06T07:20:05;6.40;1.00
20384;DHT22;46458;50.966;7.002;2024-01-06T07:22:35;6.40;1.00
20384;DHT22;46458;50.966;7.002;2024-01-06T07:25:07;6.30;99.90
20384;DHT22;46458;50.966;7.002;2024-01-06T07:27:36;6.30;71.60
20384;DHT22;46458;50.966;7.002;2024-01-06T07:30:06;6.30;1.00
20384;DHT22;46458;50.966;7.002;2024-01-06T07:32:36;6.30;1.00
20384;DHT22;46458;50.966;7.002;2024-01-06T07:35:05;6.30;1.00
20384;DHT22;46458;50.966;7.002;2024-01-06T07:37:34;6.30;1.00
20384;DHT22;46458;50.966;7.002;2024-01-06T07:40:06;6.30;1.00
20384;DHT22;46458;50.966;7.002;2024-01-06T07:42:35;6.30;1.00
20384;DHT22;46458;50.966;7.002;2024-01-06T07:45:05;6.20;1.00
20384;DHT22;46458;50.966;7.002;2024-01-06T07:47:34;6.20;99.90
20384;DHT22;46458;50.966;7.002;2024-01-06T07:50:04;6.30;99.90
20384;DHT22;46458;50.966;7.002;2024-01-06T07:52:34;6.30;99.90
20384;DHT22;46458;50.966;7.002;2024-01-06T07:55:06;6.40;1.00
20384;DHT22;46458;50.966;7.002;2024-01-06T07:57:35;6.40;1.00
20384;DHT22;46458;50.966;7.002;2024-01-06T08:00:06;6.30;1.00
20384;DHT22;46458;50.966;7.002;2024-01-06T08:02:41;6.20;1.00
20384;DHT22;46458;50.966;7.002;2024-01-06T08:05:09;6.30;1.00
20384;DHT22;46458;50.966;7.002;2024-01-06T08:07:39;6.40;99.90
20384;DHT22;46458;50.966;7.002;2024-01-06T08:10:10;6.30;1.00
20384;DHT22;46458;50.966;7.002;2024-01-06T08:12:39;6.20;1.00
20384;DHT22;46458;50.966;7.002;2024-01-06T08:15:08;6.30;1.00
20384;DHT22;46458;50.966;7.002;2024-01-06T08:17:37;6.20;99.90
20384;DHT22;46458;50.966;7.002;2024-01-06T08:20:07;6.20;99.90
20384;DHT22;46458;50.966;7.002;2024-01-06T08:22:36;6.20;1.00
20384;DHT22;46458;50.966;7.002;2024-01-06T08:25:06;6.30;1.00
20384;DHT22;46458;50.966;7.002;2024-01-06T08:27:37;6.30;1.00
20384;DHT22;46458;50.966;7.002;2024-01-06T08:30:07;6.30;99.90
20384;DHT22;46458;50.966;7.002;2024-01-06T08:32:36;6.40;1.00
20384;DHT22;46458;50.966;7.002;2024-01-06T08:35:06;6.40;99.90
20384;DHT22;46458;50.966;7.002;2024-01-06T08:37:35;6.40;1.00
20384;DHT22;46458;50.966;7.002;2024-01-06T08:40:05;6.30;1.00
20384;DHT22;46458;50.966;7.002;2024-01-06T08:42:37;6.40;1.00
20384;DHT22;46458;50.966;7.002;2024-01-06T08:45:06;6.40;1.00
20384;DHT22;46458;50.966;7.002;2024-01-06T08:47:35;6.40;1.00
20384;DHT22;46458;50.966;7.002;2024-01-06T08:50:05;6.40;99.90
20384;DHT22;46458;50.966;7.002;2024-01-06T08:52:34;6.40;1.00
20384;DHT22;46458;50.966;7.002;2024-01-06T08:55:04;6.40;1.00
20384;DHT22;46458;50.966;7.002;2024-01-06T08:57:33;6.40;99.90
20384;DHT22;46458;50.966;7.002;2024-01-06T09:00:06;6.50;1.00
20384;DHT22;46458;50.966;7.002;2024-01-06T09:02:36;6.50;99.90
20384;DHT22;46458;50.966;7.002;2024-01-06T09:05:06;6.50;26.00
20384;DHT22;46458;50.966;7.002;2024-01-06T09:07:34;6.50;1.00
20384;DHT22;46458;50.966;7.002;2024-01-06T09:10:04;6.50;99.90
20384;DHT22;46458;50.966;7.002;2024-01-06T09:12:33;6.50;99.90
20384;DHT22;46458;50.966;7.002;2024-01-06T09:15:05;6.40;15.70
20384;DHT22;46458;50.966;7.002;2024-01-06T09:17:34;6.40;1.00
20384;DHT22;46458;50.966;7.002;2024-01-06T09:20:03;6.40;1.00
20384;DHT22;46458;50.966;7.002;2024-01-06T09:22:32;6.30;1.00
20384;DHT22;46458;50.966;7.002;2024-01-06T09:25:01;6.40;1.00
20384;DHT22;46458;50.966;7.002;2024-01-06T09:27:30;6.40;99.90
20384;DHT22;46458;50.966;7.002;2024-01-06T09:29:58;6.40;1.00
20384;DHT22;46458;50.966;7.002;2024-01-06T09:32:30;6.40;99.90
20384;DHT22;46458;50.966;7.002;2024-01-06T09:34:59;6.40;1.00
20384;DHT22;46458;50.966;7.002;2024-01-06T09:37:27;6.40;1.00
20384;DHT22;46458;50.966;7.002;2024-01-06T09:39:56;6.40;99.90
20384;DHT22;46458;50.966;7.002;2024-01-06T09:42:25;6.40;99.90
20384;DHT22;46458;50.966;7.002;2024-01-06T09:44:54;6.40;1.00
20384;DHT22;46458;50.966;7.002;2024-01-06T09:47:26;6.40;25.40
20384;DHT22;46458;50.966;7.002;2024-01-06T09:50:01;6.40;99.90
20384;DHT22;46458;50.966;7.002;2024-01-06T09:52:32;6.40;31.30
20384;DHT22;46458;50.966;7.002;2024-01-06T09:55:02;6.40;99.90
20384;DHT22;46458;50.966;7.002;2024-01-06T09:57:36;6.20;9.80
20384;DHT22;46458;50.966;7.002;2024-01-06T10:00:06;6.30;1.00
20384;DHT22;46458;50.966;7.002;2024-01-06T10:02:38;6.30;99.90
20384;DHT22;46458;50.966;7.002;2024-01-06T10:05:12;6.20;1.00
20384;DHT22;46458;50.966;7.002;2024-01-06T10:07:41;6.20;1.00
20384;DHT22;46458;50.966;7.002;2024-01-06T10:10:11;6.20;1.00
20384;DHT22;46458;50.966;7.002;2024-01-06T10:12:40;6.20;99.90
20384;DHT22;46458;50.966;7.002;2024-01-06T10:15:10;6.20;1.00
20384;DHT22;46458;50.966;7.002;2024-01-06T10:17:40;6.20;1.00
20384;DHT22;46458;50.966;7.002;2024-01-06T10:20:12;6.20;1.00
20384;DHT22;46458;50.966;7.002;2024-01-06T10:22:43;6.20;99.90
20384;DHT22;46458;50.966;7.002;2024-01-06T10:25:12;6.20;1.00
20384;DHT22;46458;50.966;7.002;2024-01-06T10:27:42;6.20;23.90
20384;DHT22;46458;50.966;7.002;2024-01-06T10:30:11;6.10;1.00
20384;DHT22;46458;50.966;7.002;2024-01-06T10:32:44;6.10;1.00
20384;DHT22;46458;50.966;7.002;2024-01-06T10:35:16;6.20;99.90
20384;DHT22;46458;50.966;7.002;2024-01-06T10:37:45;6.20;1.00
20384;DHT22;46458;50.966;7.002;2024-01-06T10:40:16;6.20;1.00
20384;DHT22;46458;50.966;7.002;2024-01-06T10:42:45;6.20;99.90
20384;DHT22;46458;50.966;7.002;2024-01-06T10:45:14;6.20;1.00
20384;DHT22;46458;50.966;7.002;2024-01-06T10:47:44;6.20;99.90
20384;DHT22;46458;50.966;7.002;2024-01-06T10:50:17;6.20;1.00
20384;DHT22;46458;50.966;7.002;2024-01-06T10:52:48;6.20;49.70
20384;DHT22;46458;50.966;7.002;2024-01-06T10:55:16;6.10;1.00
20384;DHT22;46458;50.966;7.002;2024-01-06T10:57:47;6.10;1.00
20384;DHT22;46458;50.966;7.002;2024-01-06T11:00:18;6.20;99.90
20384;DHT22;46458;50.966;7.002;2024-01-06T11:02:47;6.20;1.00
20384;DHT22;46458;50.966;7.002;2024-01-06T11:05:21;6.20;99.90
20384;DHT22;46458;50.966;7.002;2024-01-06T11:07:53;6.20;99.90
20384;DHT22;46458;50.966;7.002;2024-01-06T11:10:27;6.20;1.00
20384;DHT22;46458;50.966;7.002;2024-01-06T11:13:10;6.30;99.90
20384;DHT22;46458;50.966;7.002;2024-01-06T11:15:40;6.30;1.00
20384;DHT22;46458;50.966;7.002;2024-01-06T11:18:30;6.40;99.90
20384;DHT22;46458;50.966;7.002;2024-01-06T11:21:19;6.50;1.00
20384;DHT22;46458;50.966;7.002;2024-01-06T11:24:13;6.50;99.90
20384;DHT22;46458;50.966;7.002;2024-01-06T11:26:44;6.50;99.90
20384;DHT22;46458;50.966;7.002;2024-01-06T11:29:14;6.40;1.00
20384;DHT22;46458;50.966;7.002;2024-01-06T11:31:43;6.40;99.90
20384;DHT22;46458;50.966;7.002;2024-01-06T11:34:16;6.50;99.90
20384;DHT22;46458;50.966;7.002;2024-01-06T11:36:48;6.50;1.00
20384;DHT22;46458;50.966;7.002;2024-01-06T11:39:34;6.40;1.00
20384;DHT22;46458;50.966;7.002;2024-01-06T11:42:04;6.40;1.00
20384;DHT22;46458;50.966;7.002;2024-01-06T11:44:34;6.30;99.90
20384;DHT22;46458;50.966;7.002;2024-01-06T11:47:04;6.40;1.00
20384;DHT22;46458;50.966;7.002;2024-01-06T11:49:33;6.40;1.00
20384;DHT22;46458;50.966;7.002;2024-01-06T11:52:05;6.50;99.90
20384;DHT22;46458;50.966;7.002;2024-01-06T11:54:35;6.50;32.00
20384;DHT22;46458;50.966;7.002;2024-01-06T11:57:04;6.60;99.90
20384;DHT22;46458;50.966;7.002;2024-01-06T11:59:33;6.60;1.00
20384;DHT22;46458;50.966;7.002;2024-01-06T12:02:04;6.50;99.90
20384;DHT22;46458;50.966;7.002;2024-01-06T12:04:33;6.50;99.90
20384;DHT22;46458;50.966;7.002;2024-01-06T12:07:08;6.50;1.00
20384;DHT22;46458;50.966;7.002;2024-01-06T12:09:39;6.40;1.00
20384;DHT22;46458;50.966;7.002;2024-01-06T12:12:08;6.40;1.00
20384;DHT22;46458;50.966;7.002;2024-01-06T12:14:40;6.40;1.00
20384;DHT22;46458;50.966;7.002;2024-01-06T12:17:09;6.30;99.90
20384;DHT22;46458;50.966;7.002;2024-01-06T12:19:39;6.00;1.00
20384;DHT22;46458;50.966;7.002;2024-01-06T12:22:15;6.10;99.90
20384;DHT22;46458;50.966;7.002;2024-01-06T12:24:44;6.10;1.00
20384;DHT22;46458;50.966;7.002;2024-01-06T12:27:12;6.10;1.00
20384;DHT22;46458;50.966;7.002;2024-01-06T12:29:41;6.10;1.00
20384;DHT22;46458;50.966;7.002;2024-01-06T12:32:10;6.10;1.00
20384;DHT22;46458;50.966;7.002;2024-01-06T12:34:40;6.00;1.00
20384;DHT22;46458;50.966;7.002;2024-01-06T12:37:08;5.90;1.00
20384;DHT22;46458;50.966;7.002;2024-01-06T12:39:41;5.90;99.90
20384;DHT22;46458;50.966;7.002;2024-01-06T12:42:11;6.00;1.00
20384;DHT22;46458;50.966;7.002;2024-01-06T12:44:43;6.00;1.00
20384;DHT22;46458;50.966;7.002;2024-01-06T12:47:12;6.00;1.00
20384;DHT22;46458;50.966;7.002;2024-01-06T12:49:42;6.00;1.00
20384;DHT22;46458;50.966;7.002;2024-01-06T12:52:11;6.00;99.90
20384;DHT22;46458;50.966;7.002;2024-01-06T12:54:43;6.00;99.90
20384;DHT22;46458;50.966;7.002;2024-01-06T12:57:12;6.00;99.90
20384;DHT22;46458;50.966;7.002;2024-01-06T12:59:41;6.10;99.90
20384;DHT22;46458;50.966;7.002;2024-01-06T13:02:09;6.00;1.00
20384;DHT22;46458;50.966;7.002;2024-01-06T13:04:38;6.00;1.00
20384;DHT22;46458;50.966;7.002;2024-01-06T13:07:07;5.90;1.00
20384;DHT22;46458;50.966;7.002;2024-01-06T13:09:36;5.80;99.90
20384;DHT22;46458;50.966;7.002;2024-01-06T13:12:08;5.80;1.00
20384;DHT22;46458;50.966;7.002;2024-01-06T13:14:37;5.70;1.00
20384;DHT22;46458;50.966;7.002;2024-01-06T13:17:06;5.60;1.00
20384;DHT22;46458;50.966;7.002;2024-01-06T13:19:35;5.60;1.00
20384;DHT22;46458;50.966;7.002;2024-01-06T13:22:04;5.90;1.00
20384;DHT22;46458;50.966;7.002;2024-01-06T13:24:33;5.60;1.00
20384;DHT22;46458;50.966;7.002;2024-01-06T13:27:02;5.50;83.50
20384;DHT22;46458;50.966;7.002;2024-01-06T13:29:34;5.50;5.30
20384;DHT22;46458;50.966;7.002;2024-01-06T13:32:05;5.70;1.00
20384;DHT22;46458;50.966;7.002;2024-01-06T13:34:34;5.60;99.90
20384;DHT22;46458;50.966;7.002;2024-01-06T13:37:04;5.50;1.00
20384;DHT22;46458;50.966;7.002;2024-01-06T13:39:30;5.60;99.90
20384;DHT22;46458;50.966;7.002;2024-01-06T13:41:59;5.60;1.00
20384;DHT22;46458;50.966;7.002;2024-01-06T13:44:29;5.50;99.90
20384;DHT22;46458;50.966;7.002;2024-01-06T13:47:01;5.60;99.90
20384;DHT22;46458;50.966;7.002;2024-01-06T13:49:30;5.50;1.00
20384;DHT22;46458;50.966;7.002;2024-01-06T13:51:59;5.60;1.00
20384;DHT22;46458;50.966;7.002;2024-01-06T13:54:28;5.60;1.00
20384;DHT22;46458;50.966;7.002;2024-01-06T13:56:57;5.50;1.00
20384;DHT22;46458;50.966;7.002;2024-01-06T13:59:26;5.50;1.00
20384;DHT22;46458;50.966;7.002;2024-01-06T14:01:55;5.50;99.90
20384;DHT22;46458;50.966;7.002;2024-01-06T14:04:26;5.40;1.00
20384;DHT22;46458;50.966;7.002;2024-01-06T14:06:55;5.60;99.90
20384;DHT22;46458;50.966;7.002;2024-01-06T14:09:24;5.50;99.90
20384;DHT22;46458;50.966;7.002;2024-01-06T14:11:53;5.40;99.90
20384;DHT22;46458;50.966;7.002;2024-01-06T14:14:22;5.50;1.00
20384;DHT22;46458;50.966;7.002;2024-01-06T14:16:50;5.40;99.90
20384;DHT22;46458;50.966;7.002;2024-01-06T14:19:19;5.30;91.30
20384;DHT22;46458;50.966;7.002;2024-01-06T14:21:52;5.40;1.00
20384;DHT22;46458;50.966;7.002;2024-01-06T14:24:20;5.40;1.00
20384;DHT22;46458;50.966;7.002;2024-01-06T14:26:50;5.40;1.00
20384;DHT22;46458;50.966;7.002;2024-01-06T14:29:21;5.40;1.00
20384;DHT22;46458;50.966;7.002;2024-01-06T14:31:50;5.40;99.90
20384;DHT22;46458;50.966;7.002;2024-01-06T14:34:18;5.40;1.00
20384;DHT22;46458;50.966;7.002;2024-01-06T14:36:47;5.30;99.90
20384;DHT22;46458;50.966;7.002;2024-01-06T14:39:19;6.20;1.00
20384;DHT22;46458;50.966;7.002;2024-01-06T14:41:48;5.40;99.90
20384;DHT22;46458;50.966;7.002;2024-01-06T14:44:17;5.50;1.00
20384;DHT22;46458;50.966;7.002;2024-01-06T14:46:46;5.40;1.00
20384;DHT22;46458;50.966;7.002;2024-01-06T14:49:16;5.40;1.00
20384;DHT22;46458;50.966;7.002;2024-01-06T14:51:45;5.40;99.90
20384;DHT22;46458;50.966;7.002;2024-01-06T14:54:13;5.40;99.90
20384;DHT22;46458;50.966;7.002;2024-01-06T14:56:45;5.30;1.00
20384;DHT22;46458;50.966;7.002;2024-01-06T14:59:14;5.20;1.00
20384;DHT22;46458;50.966;7.002;2024-01-06T15:01:43;5.20;1.00
20384;DHT22;46458;50.966;7.002;2024-01-06T15:04:10;5.10;99.90
20384;DHT22;46458;50.966;7.002;2024-01-06T15:06:39;5.10;99.90
20384;DHT22;46458;50.966;7.002;2024-01-06T15:09:09;5.40;1.00
20384;DHT22;46458;50.966;7.002;2024-01-06T15:11:37;5.20;1.00
20384;DHT22;46458;50.966;7.002;2024-01-06T15:14:09;5.10;99.90
20384;DHT22;46458;50.966;7.002;2024-01-06T15:16:38;5.10;99.90
20384;DHT22;46458;50.966;7.002;2024-01-06T15:19:07;5.10;99.90
20384;DHT22;46458;50.966;7.002;2024-01-06T15:21:37;5.10;99.90
20384;DHT22;46458;50.966;7.002;2024-01-06T15:24:06;5.10;99.90
20384;DHT22;46458;50.966;7.002;2024-01-06T15:26:35;5.20;99.90
20384;DHT22;46458;50.966;7.002;2024-01-06T15:29:04;5.20;1.00
20384;DHT22;46458;50.966;7.002;2024-01-06T15:31:35;5.00;1.00
20384;DHT22;46458;50.966;7.002;2024-01-06T15:34:04;4.90;99.90
20384;DHT22;46458;50.966;7.002;2024-01-06T15:36:33;5.00;1.00
20384;DHT22;46458;50.966;7.002;2024-01-06T15:39:02;4.90;1.00
20384;DHT22;46458;50.966;7.002;2024-01-06T15:41:31;4.90;93.70
20384;DHT22;46458;50.966;7.002;2024-01-06T15:43:59;4.90;99.90
20384;DHT22;46458;50.966;7.002;2024-01-06T15:46:28;4.90;20.00
20384;DHT22;46458;50.966;7.002;2024-01-06T15:49:00;4.80;1.00
20384;DHT22;46458;50.966;7.002;2024-01-06T15:51:29;4.80;10.20
20384;DHT22;46458;50.966;7.002;2024-01-06T15:53:58;4.80;99.90
20384;DHT22;46458;50.966;7.002;2024-01-06T15:56:27;4.70;99.90
20384;DHT22;46458;50.966;7.002;2024-01-06T15:58:56;4.70;1.00
20384;DHT22;46458;50.966;7.002;2024-01-06T16:01:26;4.70;1.00
20384;DHT22;46458;50.966;7.002;2024-01-06T16:03:55;4.70;1.00
20384;DHT22;46458;50.966;7.002;2024-01-06T16:06:26;4.70;1.00
20384;DHT22;46458;50.966;7.002;2024-01-06T16:08:56;4.70;1.00
20384;DHT22;46458;50.966;7.002;2024-01-06T16:11:25;4.50;1.00